Time;durP1;ratioP1;P1;durP2;ratioP2;P2;SDS_P1;SDS_P2;PMS_P1;PMS_P2;Temp;Humidity;BMP_temperature;BMP_pressure;BME280_temperature;BME280_humidity;BME280_pressure;Samples;Min_cycle;Max_cycle;Signal;HPM_P1;HPM_P2
2022/03/01 00:01:04;;;;;;;18.70;6.82;;;;;;;;;;5021473;28;20057;-58
2022/03/01 00:03:31;;;;;;;13.98;5.45;;;;;;;;;;5026100;28;20057;-61
2022/03/01 00:05:58;;;;;;;14.13;5.60;;;;;;;;;;5017087;28;20045;-59
2022/03/01 00:08:24;;;;;;;14.93;5.97;;;;;;;;;;5026101;28;20053;-57
2022/03/01 00:10:51;;;;;;;15.05;5.60;;;;;;;;;;5020385;28;20113;-59
2022/03/01 00:13:17;;;;;;;15.07;5.55;;;;;;;;;;5025271;28;20064;-57
2022/03/01 00:15:45;;;;;;;12.77;5.55;;;;;;;;;;5020670;28;20072;-58
2022/03/01 00:18:12;;;;;;;13.60;5.40;;;;;;;;;;5026134;28;20115;-59
2022/03/01 00:20:38;;;;;;;15.13;6.20;;;;;;;;;;5020342;28;20148;-61
2022/03/01 00:23:05;;;;;;;14.27;5.40;;;;;;;;;;5026573;28;20056;-60
2022/03/01 00:25:32;;;;;;;15.77;5.93;;;;;;;;;;5020234;28;20050;-62
2022/03/01 00:27:58;;;;;;;16.38;6.00;;;;;;;;;;5026445;28;20451;-59
2022/03/01 00:30:25;;;;;;;13.88;6.00;;;;;;;;;;5025971;28;20126;-60
2022/03/01 00:32:52;;;;;;;15.55;5.88;;;;;;;;;;5020143;28;20069;-58
2022/03/01 00:35:19;;;;;;;14.33;5.17;;;;;;;;;;5026310;28;20103;-62
2022/03/01 00:37:46;;;;;;;16.48;6.47;;;;;;;;;;5020335;28;20072;-58
2022/03/01 00:40:13;;;;;;;17.77;6.15;;;;;;;;;;5026774;28;20064;-59
2022/03/01 00:42:39;;;;;;;18.50;6.82;;;;;;;;;;5019286;28;20057;-57
2022/03/01 00:45:08;;;;;;;16.00;5.75;;;;;;;;;;5058296;28;20060;-57
2022/03/01 00:47:34;;;;;;;14.50;5.82;;;;;;;;;;5019540;28;20147;-59
2022/03/01 00:50:02;;;;;;;16.15;6.50;;;;;;;;;;5025750;28;20446;-57
2022/03/01 00:52:29;;;;;;;12.13;5.13;;;;;;;;;;5018848;28;20222;-61
2022/03/01 00:54:56;;;;;;;13.23;5.15;;;;;;;;;;5024916;28;20302;-56
2022/03/01 00:57:22;;;;;;;16.05;5.50;;;;;;;;;;5019830;28;20069;-56
2022/03/01 00:59:49;;;;;;;14.60;5.45;;;;;;;;;;5026015;28;20132;-62
2022/03/01 01:02:15;;;;;;;15.18;5.97;;;;;;;;;;5020570;28;20115;-57
2022/03/01 01:04:41;;;;;;;16.80;5.63;;;;;;;;;;5026364;28;20075;-57
2022/03/01 01:07:11;;;;;;;14.45;5.93;;;;;;;;;;5021751;28;20111;-60
2022/03/01 01:09:37;;;;;;;15.05;6.25;;;;;;;;;;5028049;28;20072;-62
2022/03/01 01:12:04;;;;;;;16.20;5.70;;;;;;;;;;5028024;28;20088;-63
2022/03/01 01:14:32;;;;;;;16.08;6.15;;;;;;;;;;5019692;28;20057;-61
2022/03/01 01:16:59;;;;;;;13.43;5.38;;;;;;;;;;5024815;28;20049;-61
2022/03/01 01:19:25;;;;;;;13.43;5.60;;;;;;;;;;5019839;28;20517;-60
2022/03/01 01:24:37;;;;;;;14.85;5.78;;;;;;;;;;5019678;28;20068;-61
2022/03/01 01:27:05;;;;;;;13.98;5.38;;;;;;;;;;5025508;28;20053;-59
2022/03/01 01:29:32;;;;;;;16.70;5.53;;;;;;;;;;5017690;28;20054;-61
2022/03/01 01:31:58;;;;;;;19.15;6.32;;;;;;;;;;5024526;28;20336;-63
2022/03/01 01:34:24;;;;;;;15.27;6.30;;;;;;;;;;5019614;28;20057;-59
2022/03/01 01:36:53;;;;;;;12.73;5.10;;;;;;;;;;5027544;28;20064;-58
2022/03/01 01:39:19;;;;;;;;;;;;;;;;;;5020235;28;20072;-57
2022/03/01 01:41:47;;;;;;;11.82;4.55;;;;;;;;;;5035815;28;19960;-57
2022/03/01 01:44:14;;;;;;;18.57;6.60;;;;;;;;;;5025278;28;20049;-58
2022/03/01 01:46:41;;;;;;;17.15;6.55;;;;;;;;;;5025615;28;20308;-58
2022/03/01 01:49:07;;;;;;;10.98;4.53;;;;;;;;;;5018332;28;20049;-57
2022/03/01 01:51:34;;;;;;;11.93;5.03;;;;;;;;;;5024676;28;20053;-55
2022/03/01 01:54:01;;;;;;;15.45;6.18;;;;;;;;;;5019694;28;20068;-62
2022/03/01 01:56:28;;;;;;;13.75;5.07;;;;;;;;;;5024576;28;20068;-61
2022/03/01 01:58:56;;;;;;;14.23;5.80;;;;;;;;;;5024730;28;20065;-65
2022/03/01 02:01:22;;;;;;;19.90;5.87;;;;;;;;;;5018921;28;20061;-63
2022/03/01 02:03:48;;;;;;;11.38;5.35;;;;;;;;;;5008793;28;20049;-62
2022/03/01 02:06:17;;;;;;;15.93;5.85;;;;;;;;;;5019839;28;20080;-62
2022/03/01 02:08:43;;;;;;;;;;;;;;;;;;5026471;28;20050;-63
2022/03/01 02:11:10;;;;;;;14.25;4.57;;;;;;;;;;5018072;28;19925;-57
2022/03/01 02:13:36;;;;;;;16.65;5.80;;;;;;;;;;5024086;28;20099;-60
2022/03/01 02:16:05;;;;;;;16.83;5.82;;;;;;;;;;5018225;28;20060;-59
2022/03/01 02:18:32;;;;;;;19.83;6.13;;;;;;;;;;5024309;28;20057;-55
2022/03/01 02:20:59;;;;;;;13.77;6.13;;;;;;;;;;5017714;28;20076;-61
2022/03/01 02:23:26;;;;;;;17.87;5.67;;;;;;;;;;5024324;28;20108;-59
2022/03/01 02:25:53;;;;;;;14.88;5.75;;;;;;;;;;5018403;28;20067;-62
2022/03/01 02:28:19;;;;;;;11.48;5.35;;;;;;;;;;5024454;28;20085;-61
2022/03/01 02:30:46;;;;;;;16.13;5.20;;;;;;;;;;5018991;28;20487;-62
2022/03/01 02:33:12;;;;;;;14.18;5.22;;;;;;;;;;5025102;28;20049;-60
2022/03/01 02:35:39;;;;;;;12.68;5.50;;;;;;;;;;5019274;28;20068;-60
2022/03/01 02:38:07;;;;;;;11.95;5.00;;;;;;;;;;5026416;28;20050;-63
2022/03/01 02:40:34;;;;;;;11.25;5.03;;;;;;;;;;5025819;28;20045;-63
2022/03/01 02:43:00;;;;;;;14.40;5.38;;;;;;;;;;5023507;28;20084;-60
2022/03/01 02:45:27;;;;;;;16.08;5.97;;;;;;;;;;5027923;28;20057;-60
2022/03/01 02:47:54;;;;;;;18.13;5.80;;;;;;;;;;5018892;28;20057;-57
2022/03/01 02:50:21;;;;;;;15.63;5.38;;;;;;;;;;5023016;28;20496;-58
2022/03/01 02:52:47;;;;;;;19.35;6.18;;;;;;;;;;5016192;28;20053;-60
2022/03/01 02:55:15;;;;;;;16.30;5.95;;;;;;;;;;5024331;28;20103;-61
2022/03/01 02:57:42;;;;;;;12.98;5.63;;;;;;;;;;5018264;28;20099;-60
2022/03/01 03:00:10;;;;;;;16.20;6.10;;;;;;;;;;5022994;28;20055;-58
2022/03/01 03:02:37;;;;;;;12.33;4.90;;;;;;;;;;5009701;28;20080;-57
2022/03/01 03:05:06;;;;;;;13.73;5.70;;;;;;;;;;5024586;28;20318;-57
2022/03/01 03:07:32;;;;;;;12.93;5.03;;;;;;;;;;5021623;28;20049;-57
2022/03/01 03:09:59;;;;;;;14.93;5.13;;;;;;;;;;5047458;28;20144;-60
2022/03/01 03:12:27;;;;;;;14.05;4.82;;;;;;;;;;5042736;28;20052;-62
2022/03/01 03:14:53;;;;;;;13.77;5.33;;;;;;;;;;5048802;28;20080;-57
2022/03/01 03:17:22;;;;;;;14.30;5.32;;;;;;;;;;5042733;28;20097;-63
2022/03/01 03:19:49;;;;;;;13.93;5.53;;;;;;;;;;5046249;28;20093;-63
2022/03/01 03:22:15;;;;;;;14.23;4.93;;;;;;;;;;5043468;28;20049;-63
2022/03/01 03:24:42;;;;;;;15.65;5.45;;;;;;;;;;5060202;28;20140;-63
2022/03/01 03:27:09;;;;;;;14.57;6.55;;;;;;;;;;5028128;28;20057;-62
2022/03/01 03:29:37;;;;;;;20.63;6.63;;;;;;;;;;5040649;28;20306;-62
2022/03/01 03:32:03;;;;;;;14.15;5.72;;;;;;;;;;5048326;28;20068;-63
2022/03/01 03:34:30;;;;;;;13.40;5.90;;;;;;;;;;5042748;28;20045;-61
2022/03/01 03:36:58;;;;;;;15.38;6.00;;;;;;;;;;5049270;28;20069;-63
2022/03/01 03:39:24;;;;;;;14.93;6.13;;;;;;;;;;5042963;28;20134;-60
2022/03/01 03:41:51;;;;;;;17.08;5.88;;;;;;;;;;5048297;28;20053;-60
2022/03/01 03:44:17;;;;;;;13.65;5.70;;;;;;;;;;5042584;28;20056;-60
2022/03/01 03:46:45;;;;;;;14.45;5.15;;;;;;;;;;5048290;28;20056;-62
2022/03/01 03:49:12;;;;;;;12.82;4.72;;;;;;;;;;5042123;28;20069;-58
2022/03/01 03:51:38;;;;;;;14.27;5.55;;;;;;;;;;5047783;28;20067;-62
2022/03/01 03:54:05;;;;;;;13.63;5.47;;;;;;;;;;5042626;28;20061;-59
2022/03/01 03:56:33;;;;;;;14.35;4.55;;;;;;;;;;5048207;28;20065;-59
2022/03/01 03:58:59;;;;;;;15.52;5.50;;;;;;;;;;5042606;28;20049;-62
2022/03/01 04:01:26;;;;;;;10.77;4.57;;;;;;;;;;5048035;28;20131;-59
2022/03/01 04:03:53;;;;;;;14.35;6.10;;;;;;;;;;5043982;28;20060;-60
2022/03/01 04:06:22;;;;;;;14.32;5.13;;;;;;;;;;5047655;28;20244;-61
2022/03/01 04:08:48;;;;;;;10.73;4.50;;;;;;;;;;5051121;28;20053;-62
2022/03/01 04:11:15;;;;;;;13.35;5.57;;;;;;;;;;5043756;28;20106;-60
2022/03/01 04:13:44;;;;;;;13.10;5.55;;;;;;;;;;5047787;28;20082;-57
2022/03/01 04:16:12;;;;;;;13.52;5.30;;;;;;;;;;5043081;28;20099;-61
2022/03/01 04:18:38;;;;;;;14.35;5.47;;;;;;;;;;5047228;28;20080;-62
2022/03/01 04:21:07;;;;;;;12.95;5.07;;;;;;;;;;5041818;28;20053;-57
2022/03/01 04:23:33;;;;;;;12.25;4.57;;;;;;;;;;5047832;28;20142;-58
2022/03/01 04:26:00;;;;;;;16.00;5.82;;;;;;;;;;5030019;28;20050;-57
2022/03/01 04:28:26;;;;;;;14.82;5.50;;;;;;;;;;5026855;28;20053;-56
2022/03/01 04:30:54;;;;;;;14.35;5.43;;;;;;;;;;5033010;28;20130;-56
2022/03/01 04:33:21;;;;;;;12.15;4.32;;;;;;;;;;5046899;28;20110;-57
2022/03/01 04:35:49;;;;;;;12.38;4.55;;;;;;;;;;5040828;28;20068;-59
2022/03/01 04:38:17;;;;;;;12.73;4.82;;;;;;;;;;5046490;28;20063;-62
2022/03/01 04:40:43;;;;;;;13.20;5.53;;;;;;;;;;5041328;28;20049;-63
2022/03/01 04:43:10;;;;;;;13.77;5.65;;;;;;;;;;5046011;28;20045;-54
2022/03/01 04:45:37;;;;;;;19.27;5.88;;;;;;;;;;5040648;28;20103;-63
2022/03/01 04:48:03;;;;;;;14.60;5.60;;;;;;;;;;5046443;28;20059;-62
2022/03/01 04:50:30;;;;;;;13.88;5.95;;;;;;;;;;5046900;28;20048;-61
2022/03/01 04:52:56;;;;;;;14.88;5.60;;;;;;;;;;5040420;28;20057;-57
2022/03/01 04:55:28;;;;;;;17.02;5.65;;;;;;;;;;5046154;28;20060;-61
2022/03/01 04:57:54;;;;;;;14.25;5.97;;;;;;;;;;5040405;28;20111;-63
2022/03/01 05:00:21;;;;;;;10.73;4.78;;;;;;;;;;5046717;28;20052;-63
2022/03/01 05:02:47;;;;;;;11.65;4.75;;;;;;;;;;5038794;28;20045;-62
2022/03/01 05:05:14;;;;;;;13.02;5.15;;;;;;;;;;5031887;28;20049;-56
2022/03/01 05:07:42;;;;;;;13.55;5.80;;;;;;;;;;5055397;28;20053;-57
2022/03/01 05:10:09;;;;;;;11.25;5.00;;;;;;;;;;5037531;28;20049;-60
2022/03/01 05:12:42;;;;;;;13.43;5.40;;;;;;;;;;5073435;28;20048;-56
2022/03/01 05:15:09;;;;;;;14.20;5.95;;;;;;;;;;5046851;28;20053;-60
2022/03/01 05:17:36;;;;;;;11.52;4.68;;;;;;;;;;5042046;28;20077;-61
2022/03/01 05:20:03;;;;;;;15.65;6.07;;;;;;;;;;5079892;28;20077;-63
2022/03/01 05:22:32;;;;;;;10.43;4.28;;;;;;;;;;5021914;28;20037;-62
2022/03/01 05:24:59;;;;;;;11.93;4.68;;;;;;;;;;5024813;28;20057;-61
2022/03/01 05:27:26;;;;;;;12.32;4.90;;;;;;;;;;5018920;28;20057;-63
2022/03/01 05:29:54;;;;;;;15.48;5.75;;;;;;;;;;5023995;28;20092;-56
2022/03/01 05:32:20;;;;;;;14.50;6.17;;;;;;;;;;5019200;28;20080;-61
2022/03/01 05:34:47;;;;;;;16.73;5.55;;;;;;;;;;5060657;28;20122;-64
2022/03/01 05:37:13;;;;;;;14.75;5.78;;;;;;;;;;5027663;28;20048;-63
2022/03/01 05:39:40;;;;;;;11.73;4.90;;;;;;;;;;5020886;28;20505;-61
2022/03/01 05:42:08;;;;;;;12.30;4.95;;;;;;;;;;5025845;28;20045;-61
2022/03/01 05:44:34;;;;;;;19.90;5.38;;;;;;;;;;5019312;28;20045;-62
2022/03/01 05:47:03;;;;;;;10.93;4.60;;;;;;;;;;5025197;28;20053;-60
2022/03/01 05:49:29;;;;;;;;;;;;;;;;;;5019702;28;20072;-60
2022/03/01 05:51:56;;;;;;;12.55;5.05;;;;;;;;;;5025545;28;19986;-56
2022/03/01 05:54:22;;;;;;;14.10;5.40;;;;;;;;;;5019054;28;20062;-60
2022/03/01 05:56:49;;;;;;;16.17;5.40;;;;;;;;;;5023022;28;20064;-57
2022/03/01 05:59:15;;;;;;;15.85;6.10;;;;;;;;;;5018355;28;20139;-54
2022/03/01 06:01:42;;;;;;;12.88;5.03;;;;;;;;;;5024244;28;20057;-58
2022/03/01 06:04:10;;;;;;;14.38;6.32;;;;;;;;;;5019746;28;20099;-63
2022/03/01 06:06:37;;;;;;;15.90;6.37;;;;;;;;;;5024649;28;20131;-61
2022/03/01 06:09:03;;;;;;;15.70;6.50;;;;;;;;;;5018702;28;20308;-59
2022/03/01 06:11:30;;;;;;;17.60;6.25;;;;;;;;;;5024214;28;20071;-61
2022/03/01 06:13:56;;;;;;;18.52;6.30;;;;;;;;;;5021074;28;20144;-61
2022/03/01 06:16:23;;;;;;;19.60;6.35;;;;;;;;;;5024127;28;20053;-63
2022/03/01 06:18:50;;;;;;;16.50;6.10;;;;;;;;;;5023251;28;20057;-57
2022/03/01 06:21:18;;;;;;;14.50;5.88;;;;;;;;;;5016571;28;20057;-61
2022/03/01 06:23:45;;;;;;;17.17;5.82;;;;;;;;;;5024235;28;20080;-61
2022/03/01 06:26:13;;;;;;;13.18;5.63;;;;;;;;;;5018448;28;20071;-59
2022/03/01 06:28:39;;;;;;;15.02;5.57;;;;;;;;;;5024101;28;20065;-59
2022/03/01 06:31:06;;;;;;;16.85;5.18;;;;;;;;;;5018653;28;20060;-59
2022/03/01 06:33:33;;;;;;;11.88;4.95;;;;;;;;;;5025261;28;20458;-59
2022/03/01 06:36:04;;;;;;;14.55;5.40;;;;;;;;;;5019110;28;20046;-56
2022/03/01 06:38:32;;;;;;;14.43;5.28;;;;;;;;;;5023482;28;20057;-57
2022/03/01 06:40:59;;;;;;;14.93;6.40;;;;;;;;;;5019136;28;20104;-61
2022/03/01 06:43:26;;;;;;;11.77;4.72;;;;;;;;;;5061490;28;20053;-63
2022/03/01 06:45:54;;;;;;;13.30;4.57;;;;;;;;;;5035257;28;20107;-57
2022/03/01 06:48:21;;;;;;;;;;;;;;;;;;5048741;28;20057;-61
2022/03/01 06:50:47;;;;;;;12.80;5.20;;;;;;;;;;5029255;28;20011;-63
2022/03/01 06:53:14;;;;;;;18.40;5.57;;;;;;;;;;5049668;28;20053;-61
2022/03/01 06:55:43;;;;;;;16.23;6.63;;;;;;;;;;5043989;28;20053;-60
2022/03/01 06:58:09;;;;;;;13.23;5.40;;;;;;;;;;5049179;28;20057;-59
2022/03/01 07:00:36;;;;;;;14.45;5.53;;;;;;;;;;5049876;28;20053;-63
2022/03/01 07:03:03;;;;;;;13.48;5.10;;;;;;;;;;5044606;28;20110;-62
2022/03/01 07:05:31;;;;;;;16.60;5.63;;;;;;;;;;5052589;28;20076;-63
2022/03/01 07:08:03;;;;;;;13.88;5.20;;;;;;;;;;5045347;28;20056;-62
2022/03/01 07:10:29;;;;;;;11.18;4.53;;;;;;;;;;5048263;28;20053;-64
2022/03/01 07:12:57;;;;;;;11.32;5.07;;;;;;;;;;5043492;28;20049;-64
2022/03/01 07:15:24;;;;;;;12.93;5.47;;;;;;;;;;5048855;28;20418;-63
2022/03/01 07:17:51;;;;;;;14.00;5.10;;;;;;;;;;5042834;28;20148;-61
2022/03/01 07:20:17;;;;;;;12.80;5.18;;;;;;;;;;5048602;28;20056;-64
2022/03/01 07:22:44;;;;;;;13.02;5.53;;;;;;;;;;5042984;28;20079;-61
2022/03/01 07:25:11;;;;;;;16.88;6.07;;;;;;;;;;5048580;28;20061;-65
2022/03/01 07:27:44;;;;;;;14.40;5.47;;;;;;;;;;5041853;28;20057;-63
2022/03/01 07:30:12;;;;;;;16.05;6.47;;;;;;;;;;5048045;28;20099;-58
2022/03/01 07:32:39;;;;;;;16.38;5.47;;;;;;;;;;5043495;28;20088;-61
2022/03/01 07:35:07;;;;;;;14.48;5.65;;;;;;;;;;5047947;28;20347;-59
2022/03/01 07:37:34;;;;;;;17.33;6.38;;;;;;;;;;5042951;28;20057;-61
2022/03/01 07:40:01;;;;;;;14.75;6.47;;;;;;;;;;5048092;28;20114;-58
2022/03/01 07:42:27;;;;;;;14.25;5.40;;;;;;;;;;5042690;28;20072;-58
2022/03/01 07:44:54;;;;;;;12.10;5.03;;;;;;;;;;5048222;28;20057;-64
2022/03/01 07:47:23;;;;;;;14.88;5.28;;;;;;;;;;5047965;28;20084;-57
2022/03/01 07:49:50;;;;;;;13.35;5.07;;;;;;;;;;5042424;28;20064;-60
2022/03/01 07:52:17;;;;;;;14.80;6.10;;;;;;;;;;5047939;28;20106;-61
2022/03/01 07:54:44;;;;;;;14.80;5.68;;;;;;;;;;5041449;28;20195;-60
2022/03/01 07:57:10;;;;;;;14.70;5.97;;;;;;;;;;5039491;28;20053;-61
2022/03/01 07:59:37;;;;;;;17.33;6.55;;;;;;;;;;5042331;28;20088;-55
2022/03/01 08:02:03;;;;;;;19.73;7.05;;;;;;;;;;5048727;28;20056;-54
2022/03/01 08:04:31;;;;;;;14.52;5.93;;;;;;;;;;5042178;28;20148;-61
2022/03/01 08:06:59;;;;;;;18.67;6.43;;;;;;;;;;5045754;28;20118;-55
2022/03/01 08:09:25;;;;;;;14.82;6.28;;;;;;;;;;5041733;28;20095;-61
2022/03/01 08:11:52;;;;;;;16.35;5.75;;;;;;;;;;5039025;28;20076;-61
2022/03/01 08:14:18;;;;;;;15.98;5.13;;;;;;;;;;5042253;28;20138;-60
2022/03/01 08:16:45;;;;;;;15.02;5.30;;;;;;;;;;5047901;28;20056;-59
2022/03/01 08:19:12;;;;;;;12.60;4.88;;;;;;;;;;5042822;28;20064;-61
2022/03/01 08:21:39;;;;;;;17.02;5.88;;;;;;;;;;5048264;28;20083;-60
2022/03/01 08:24:06;;;;;;;12.83;5.23;;;;;;;;;;5040728;28;20072;-62
2022/03/01 08:26:33;;;;;;;14.57;6.35;;;;;;;;;;5029437;28;20119;-61
2022/03/01 08:28:59;;;;;;;16.00;5.85;;;;;;;;;;5044160;28;20063;-61
2022/03/01 08:31:26;;;;;;;18.42;7.10;;;;;;;;;;5025269;28;20122;-62
2022/03/01 08:33:52;;;;;;;11.90;4.82;;;;;;;;;;5049289;28;20502;-62
2022/03/01 08:36:20;;;;;;;15.82;5.93;;;;;;;;;;5043761;28;20061;-61
2022/03/01 08:38:48;;;;;;;12.82;5.30;;;;;;;;;;5047321;28;20170;-61
2022/03/01 08:41:15;;;;;;;16.27;6.23;;;;;;;;;;5041125;28;20077;-61
2022/03/01 08:43:41;;;;;;;18.02;6.40;;;;;;;;;;5047254;28;20064;-61
2022/03/01 08:46:10;;;;;;;20.10;6.72;;;;;;;;;;5039022;28;20103;-62
2022/03/01 08:48:36;;;;;;;14.73;5.90;;;;;;;;;;5047424;28;20480;-59
2022/03/01 08:51:04;;;;;;;15.75;6.13;;;;;;;;;;5041534;28;20154;-57
2022/03/01 08:53:31;;;;;;;13.73;5.70;;;;;;;;;;5047687;28;20052;-59
2022/03/01 08:56:00;;;;;;;19.40;6.53;;;;;;;;;;5042272;28;20056;-59
2022/03/01 08:58:26;;;;;;;14.93;5.88;;;;;;;;;;5046960;28;20053;-58
2022/03/01 09:00:53;;;;;;;17.13;6.63;;;;;;;;;;5041882;28;20111;-61
2022/03/01 09:03:19;;;;;;;14.45;6.47;;;;;;;;;;5047263;28;20144;-59
2022/03/01 09:05:46;;;;;;;17.95;6.97;;;;;;;;;;5041259;28;20080;-62
2022/03/01 09:08:14;;;;;;;19.02;7.18;;;;;;;;;;5045967;28;20142;-62
2022/03/01 09:10:40;;;;;;;21.15;6.68;;;;;;;;;;5046823;28;20061;-61
2022/03/01 09:13:08;;;;;;;19.15;6.70;;;;;;;;;;5039564;28;20048;-59
2022/03/01 09:15:35;;;;;;;16.48;6.03;;;;;;;;;;5046918;28;20114;-63
2022/03/01 09:18:03;;;;;;;8.70;3.85;;;;;;;;;;5056032;28;20100;-60
2022/03/01 09:20:30;;;;;;;15.90;5.68;;;;;;;;;;5058944;28;20057;-61
2022/03/01 09:22:57;;;;;;;21.92;7.25;;;;;;;;;;5029968;28;20118;-61
2022/03/01 09:25:24;;;;;;;15.75;7.40;;;;;;;;;;5046478;28;20048;-63
2022/03/01 09:27:51;;;;;;;14.93;5.88;;;;;;;;;;5041118;28;20056;-58
2022/03/01 09:30:20;;;;;;;19.42;7.30;;;;;;;;;;5047314;28;20664;-59
2022/03/01 09:32:47;;;;;;;18.00;6.43;;;;;;;;;;5040807;28;20048;-62
2022/03/01 09:35:14;;;;;;;12.63;6.00;;;;;;;;;;5046550;28;20049;-60
2022/03/01 09:37:42;;;;;;;18.20;5.80;;;;;;;;;;5040213;28;20061;-60
2022/03/01 09:40:09;;;;;;;15.77;5.97;;;;;;;;;;5046411;28;20053;-58
2022/03/01 09:42:36;;;;;;;18.20;7.00;;;;;;;;;;5041251;28;20064;-61
2022/03/01 09:45:02;;;;;;;16.85;6.50;;;;;;;;;;5046997;28;20052;-61
2022/03/01 09:47:31;;;;;;;16.67;6.25;;;;;;;;;;5040755;28;20048;-59
2022/03/01 09:49:57;;;;;;;15.38;5.55;;;;;;;;;;5046510;28;20056;-62
2022/03/01 09:52:24;;;;;;;17.92;6.50;;;;;;;;;;5042801;28;20426;-61
2022/03/01 09:54:51;;;;;;;20.40;6.85;;;;;;;;;;5045185;28;20144;-63
2022/03/01 09:57:18;;;;;;;21.25;6.78;;;;;;;;;;5046535;28;20075;-61
2022/03/01 09:59:45;;;;;;;15.98;5.57;;;;;;;;;;5040672;28;20080;-61
2022/03/01 10:02:12;;;;;;;16.67;6.28;;;;;;;;;;5048278;28;20072;-61
2022/03/01 10:04:50;;;;;;;16.60;5.60;;;;;;;;;;5042207;28;20049;-62
2022/03/01 10:07:21;;;;;;;13.65;5.53;;;;;;;;;;5045524;28;20082;-60
2022/03/01 10:09:48;;;;;;;15.40;5.68;;;;;;;;;;5040603;28;20068;-60
2022/03/01 10:12:15;;;;;;;15.45;7.25;;;;;;;;;;5046208;28;20056;-57
2022/03/01 10:14:41;;;;;;;13.32;6.35;;;;;;;;;;5040852;28;20134;-59
2022/03/01 10:17:16;;;;;;;14.65;6.35;;;;;;;;;;5046162;28;20060;-58
2022/03/01 10:19:45;;;;;;;13.02;5.45;;;;;;;;;;5044353;28;20053;-59
2022/03/01 10:22:12;;;;;;;16.92;6.53;;;;;;;;;;5042076;28;20056;-59
2022/03/01 10:24:47;;;;;;;14.32;5.53;;;;;;;;;;5044359;28;20049;-60
2022/03/01 10:27:14;;;;;;;17.42;6.65;;;;;;;;;;5048346;28;20044;-60
2022/03/01 10:29:43;;;;;;;18.90;7.13;;;;;;;;;;5043468;28;20044;-60
2022/03/01 10:32:11;;;;;;;14.20;5.90;;;;;;;;;;5050025;28;20052;-61
2022/03/01 10:34:37;;;;;;;12.75;5.28;;;;;;;;;;5042613;28;20045;-60
2022/03/01 10:37:07;;;;;;;17.33;6.40;;;;;;;;;;5048382;28;20045;-60
2022/03/01 10:39:34;;;;;;;16.85;6.95;;;;;;;;;;5043712;28;20065;-61
2022/03/01 10:42:03;;;;;;;13.18;5.10;;;;;;;;;;5049688;28;20061;-60
2022/03/01 10:44:30;;;;;;;13.23;6.05;;;;;;;;;;5045447;28;20061;-61
2022/03/01 10:46:57;;;;;;;14.35;5.35;;;;;;;;;;5029075;28;20061;-59
2022/03/01 10:49:25;;;;;;;17.80;6.90;;;;;;;;;;5029844;28;20115;-58
2022/03/01 10:51:52;;;;;;;17.67;6.70;;;;;;;;;;5042355;28;20096;-57
2022/03/01 10:54:26;;;;;;;13.88;5.72;;;;;;;;;;5049285;28;20146;-57
2022/03/01 10:56:55;;;;;;;23.10;8.07;;;;;;;;;;5077626;28;20080;-61
2022/03/01 10:59:22;;;;;;;24.48;8.27;;;;;;;;;;5050287;28;20057;-61
2022/03/01 11:01:49;;;;;;;18.38;7.30;;;;;;;;;;5043364;28;20072;-61
2022/03/01 11:04:15;;;;;;;19.98;5.55;;;;;;;;;;5048725;28;20063;-59
2022/03/01 11:06:43;;;;;;;17.90;7.25;;;;;;;;;;5069658;28;20131;-51
2022/03/01 11:09:10;;;;;;;20.23;7.57;;;;;;;;;;5028896;28;20057;-61
2022/03/01 11:11:39;;;;;;;15.23;6.05;;;;;;;;;;5022831;28;20304;-59
2022/03/01 11:14:06;;;;;;;14.00;5.40;;;;;;;;;;5071814;28;20057;-61
2022/03/01 11:16:43;;;;;;;14.43;6.57;;;;;;;;;;5035938;28;20148;-60
2022/03/01 11:19:29;;;;;;;18.92;6.30;;;;;;;;;;5019016;28;20568;-61
2022/03/01 11:21:57;;;;;;;19.02;8.02;;;;;;;;;;5013416;28;20141;-61
2022/03/01 11:24:24;;;;;;;13.02;6.25;;;;;;;;;;5029319;28;20116;-61
2022/03/01 11:26:52;;;;;;;15.13;6.40;;;;;;;;;;5031259;28;20144;-62
2022/03/01 11:29:19;;;;;;;19.45;7.78;;;;;;;;;;5042800;28;20152;-62
2022/03/01 11:31:56;;;;;;;21.95;7.57;;;;;;;;;;5044807;28;20126;-62
2022/03/01 11:34:23;;;;;;;19.95;7.97;;;;;;;;;;5050387;28;20472;-58
2022/03/01 11:36:52;;;;;;;18.83;8.07;;;;;;;;;;5043711;28;20049;-58
2022/03/01 11:39:20;;;;;;;;;;;;;;;;;;5050255;28;20057;-60
2022/03/01 11:41:48;;;;;;;14.13;6.00;;;;;;;;;;5044136;28;20058;-61
2022/03/01 11:44:19;;;;;;;22.38;8.45;;;;;;;;;;5049141;28;20053;-60
2022/03/01 11:46:48;;;;;;;17.25;7.40;;;;;;;;;;5048607;28;20054;-61
2022/03/01 11:49:16;;;;;;;20.98;8.63;;;;;;;;;;5045898;28;20119;-61
2022/03/01 11:51:46;;;;;;;17.08;6.93;;;;;;;;;;5048663;28;20061;-56
2022/03/01 11:54:14;;;;;;;12.65;6.40;;;;;;;;;;5041599;28;20064;-60
2022/03/01 11:56:42;;;;;;;22.85;7.95;;;;;;;;;;5049147;28;20095;-58
2022/03/01 11:59:09;;;;;;;25.73;7.18;;;;;;;;;;5043244;28;20052;-61
2022/03/01 12:01:39;;;;;;;17.80;7.63;;;;;;;;;;5048392;28;20041;-58
2022/03/01 12:04:08;;;;;;;24.85;9.23;;;;;;;;;;5042320;28;20084;-62
2022/03/01 12:06:36;;;;;;;19.75;6.28;;;;;;;;;;5047842;28;20057;-60
2022/03/01 12:09:05;;;;;;;17.98;7.88;;;;;;;;;;5041586;28;20053;-61
2022/03/01 12:11:34;;;;;;;16.17;7.50;;;;;;;;;;5048323;28;20056;-61
2022/03/01 12:14:05;;;;;;;14.60;6.72;;;;;;;;;;5042217;28;20045;-58
2022/03/01 12:16:34;;;;;;;15.00;7.32;;;;;;;;;;5047831;28;20110;-61
2022/03/01 12:19:15;;;;;;;18.83;7.43;;;;;;;;;;5042322;28;20536;-57
2022/03/01 12:21:50;;;;;;;14.82;6.57;;;;;;;;;;5047962;28;20415;-61
2022/03/01 12:24:17;;;;;;;17.98;7.63;;;;;;;;;;5041887;28;20045;-61
2022/03/01 12:26:45;;;;;;;23.55;8.90;;;;;;;;;;5048027;28;20049;-58
2022/03/01 12:29:12;;;;;;;19.05;7.75;;;;;;;;;;5042552;28;20053;-58
2022/03/01 12:31:38;;;;;;;16.30;7.07;;;;;;;;;;5047836;28;20053;-58
2022/03/01 12:34:06;;;;;;;21.55;8.38;;;;;;;;;;5041857;28;20136;-59
2022/03/01 12:36:35;;;;;;;23.13;8.82;;;;;;;;;;5047460;28;20057;-60
2022/03/01 12:39:04;;;;;;;16.13;7.15;;;;;;;;;;5041816;28;20053;-54
2022/03/01 12:41:32;;;;;;;17.35;7.13;;;;;;;;;;5046013;28;20153;-54
2022/03/01 12:43:59;;;;;;;20.75;7.65;;;;;;;;;;5047524;28;20053;-56
2022/03/01 12:46:28;;;;;;;15.95;6.85;;;;;;;;;;5041954;28;20057;-56
2022/03/01 12:48:55;;;;;;;20.42;7.93;;;;;;;;;;5047225;28;20056;-57
2022/03/01 12:51:22;;;;;;;21.65;8.98;;;;;;;;;;5041821;28;20118;-58
2022/03/01 12:53:55;;;;;;;21.67;8.93;;;;;;;;;;5047706;28;20053;-56
2022/03/01 12:56:22;;;;;;;21.27;9.13;;;;;;;;;;5041524;28;20041;-60
2022/03/01 12:58:48;;;;;;;19.67;9.35;;;;;;;;;;5048080;28;20048;-53
2022/03/01 13:01:15;;;;;;;24.33;9.52;;;;;;;;;;5042571;28;20068;-60
2022/03/01 13:03:43;;;;;;;20.98;7.95;;;;;;;;;;5049421;28;20053;-62
2022/03/01 13:06:10;;;;;;;18.90;8.70;;;;;;;;;;5042037;28;20072;-58
2022/03/01 13:08:38;;;;;;;16.50;7.20;;;;;;;;;;5045909;28;20052;-57
2022/03/01 13:11:08;;;;;;;23.15;9.82;;;;;;;;;;5041375;28;20106;-57
2022/03/01 13:13:39;;;;;;;21.38;8.40;;;;;;;;;;5046415;28;20048;-58
2022/03/01 13:16:06;;;;;;;17.88;7.53;;;;;;;;;;5033999;28;20053;-56
2022/03/01 13:18:32;;;;;;;21.27;8.40;;;;;;;;;;5060187;28;20172;-60
2022/03/01 13:20:59;;;;;;;14.73;7.22;;;;;;;;;;5020758;28;20111;-61
2022/03/01 13:23:29;;;;;;;14.20;6.88;;;;;;;;;;5026563;28;20577;-62
2022/03/01 13:25:57;;;;;;;18.67;7.93;;;;;;;;;;5021565;28;20056;-62
2022/03/01 13:28:32;;;;;;;18.55;8.15;;;;;;;;;;5075315;28;20053;-60
2022/03/01 13:30:59;;;;;;;20.25;8.60;;;;;;;;;;5020134;28;20049;-60
2022/03/01 13:33:27;;;;;;;18.58;8.93;;;;;;;;;;5026534;28;20049;-59
2022/03/01 13:35:55;;;;;;;17.63;8.55;;;;;;;;;;5027561;28;20049;-56
2022/03/01 13:38:22;;;;;;;18.80;7.70;;;;;;;;;;5020545;28;20045;-60
2022/03/01 13:40:49;;;;;;;19.00;8.57;;;;;;;;;;5026529;28;20090;-59
2022/03/01 13:43:17;;;;;;;20.63;7.75;;;;;;;;;;5021337;28;20084;-59
2022/03/01 13:45:45;;;;;;;13.93;6.57;;;;;;;;;;5026199;28;20130;-61
2022/03/01 13:48:16;;;;;;;17.13;7.43;;;;;;;;;;5017347;28;20053;-57
2022/03/01 13:50:43;;;;;;;18.15;7.75;;;;;;;;;;5038883;28;20057;-58
2022/03/01 13:53:14;;;;;;;16.25;7.18;;;;;;;;;;5020744;28;20053;-57
2022/03/01 13:55:44;;;;;;;16.65;8.18;;;;;;;;;;5026164;28;20057;-57
2022/03/01 13:58:16;;;;;;;16.80;7.57;;;;;;;;;;5020101;28;20107;-57
2022/03/01 14:00:43;;;;;;;21.90;8.85;;;;;;;;;;5026793;28;20376;-57
2022/03/01 14:03:16;;;;;;;20.35;8.43;;;;;;;;;;5023648;28;20056;-58
2022/03/01 14:05:46;;;;;;;;;;;;;;;;;;5035059;28;20127;-61
2022/03/01 14:08:14;;;;;;;20.58;7.93;;;;;;;;;;5020254;28;20048;-61
2022/03/01 14:10:42;;;;;;;17.88;7.57;;;;;;;;;;5025964;28;20140;-59
2022/03/01 14:13:09;;;;;;;18.83;8.57;;;;;;;;;;5020853;28;20053;-60
2022/03/01 14:15:37;;;;;;;17.77;7.80;;;;;;;;;;5026892;28;20511;-60
2022/03/01 14:18:03;;;;;;;16.92;7.32;;;;;;;;;;5021169;28;20128;-63
2022/03/01 14:20:32;;;;;;;17.40;7.50;;;;;;;;;;5026030;28;20056;-62
2022/03/01 14:22:59;;;;;;;19.52;8.13;;;;;;;;;;5022002;28;20080;-63
2022/03/01 14:25:29;;;;;;;16.17;7.35;;;;;;;;;;5025809;28;20136;-63
2022/03/01 14:27:56;;;;;;;18.80;8.10;;;;;;;;;;5071738;28;20113;-61
2022/03/01 14:30:23;;;;;;;19.33;8.35;;;;;;;;;;5034581;28;20053;-63
2022/03/01 14:32:51;;;;;;;17.83;8.32;;;;;;;;;;5046993;28;20076;-62
2022/03/01 14:35:18;;;;;;;15.95;7.05;;;;;;;;;;5042270;28;20057;-63